Time;durP1;ratioP1;P1;durP2;ratioP2;P2;SDS_P1;SDS_P2;PMS_P1;PMS_P2;Temp;Humidity;BMP_temperature;BMP_pressure;BME280_temperature;BME280_humidity;BME280_pressure;Samples;Min_cycle;Max_cycle;Signal;HPM_P1;HPM_P2
2022/02/04 00:03:10;;;;;;;51.42;25.95;;;6.70;99.90;;;;;;5073504;28;20024;-75
2022/02/04 00:04:58;;;;;;;48.25;23.05;;;6.70;99.90;;;;;;5067655;28;20505;-74
2022/02/04 00:20:28;;;;;;;51.45;23.27;;;6.60;99.90;;;;;;5078184;28;20127;-74
2022/02/04 00:28:22;;;;;;;50.17;23.15;;;6.70;99.90;;;;;;5075223;28;20400;-75
2022/02/04 00:31:00;;;;;;;55.42;24.85;;;6.70;99.90;;;;;;5072170;28;20473;-75
2022/02/04 00:33:28;;;;;;;50.30;25.98;;;6.70;99.90;;;;;;5073093;28;20020;-75
2022/02/04 00:36:00;;;;;;;60.17;26.92;;;6.60;99.90;;;;;;5076345;28;20825;-74
2022/02/04 00:38:33;;;;;;;62.08;28.10;;;6.60;99.90;;;;;;5073437;28;20108;-75
2022/02/04 00:41:07;;;;;;;60.40;26.52;;;6.60;99.90;;;;;;5072073;28;20035;-75
2022/02/04 00:43:33;;;;;;;59.40;27.55;;;6.60;99.90;;;;;;5065213;28;20084;-74
2022/02/04 00:46:54;;;;;;;61.55;27.58;;;6.60;99.90;;;;;;5077519;28;20058;-75
2022/02/04 00:48:58;;;;;;;59.03;27.52;;;6.60;99.90;;;;;;5064138;28;20044;-75
2022/02/04 00:52:16;;;;;;;61.80;27.33;;;6.60;99.90;;;;;;5075346;28;20020;-75
2022/02/04 01:26:37;;;;;;;72.00;30.23;;;6.60;99.90;;;;;;5073825;28;20032;-74
2022/02/04 01:29:03;;;;;;;62.25;27.85;;;6.60;99.90;;;;;;5057202;28;20020;-75
2022/02/04 01:31:29;;;;;;;70.53;32.20;;;6.60;99.90;;;;;;5075397;28;20130;-74
2022/02/04 01:33:55;;;;;;;73.25;31.17;;;6.70;99.90;;;;;;5075442;28;20103;-74
2022/02/04 01:36:21;;;;;;;70.18;31.23;;;6.70;99.90;;;;;;5074353;28;20024;-74
2022/02/04 01:38:47;;;;;;;72.43;31.48;;;6.70;99.90;;;;;;5072053;28;20034;-74
2022/02/04 01:41:14;;;;;;;69.95;29.83;;;6.70;99.90;;;;;;5071793;28;20103;-74
2022/02/04 01:43:41;;;;;;;71.90;31.70;;;6.70;99.90;;;;;;5055014;28;20067;-73
2022/02/04 01:46:09;;;;;;;75.90;31.50;;;6.60;99.90;;;;;;5075472;28;20027;-74
2022/02/04 01:48:36;;;;;;;76.32;30.70;;;6.60;99.90;;;;;;5075553;28;20082;-74
2022/02/04 01:51:04;;;;;;;75.28;31.90;;;6.60;99.90;;;;;;5072040;28;20028;-77
2022/02/04 01:53:30;;;;;;;76.35;33.20;;;6.60;99.90;;;;;;5076278;28;20389;-74
2022/02/04 01:56:01;;;;;;;70.72;31.08;;;6.60;99.90;;;;;;5074960;28;20093;-74
2022/02/04 01:58:27;;;;;;;75.90;32.60;;;6.60;99.90;;;;;;5058274;28;20459;-75
2022/02/04 02:00:53;;;;;;;75.28;31.77;;;6.60;99.90;;;;;;5075975;28;20060;-74
2022/02/04 02:03:19;;;;;;;77.28;32.92;;;6.60;99.90;;;;;;5078172;28;20454;-76
2022/02/04 02:05:47;;;;;;;88.28;35.13;;;6.60;99.90;;;;;;5075797;28;20036;-75
2022/02/04 02:08:15;;;;;;;77.93;32.78;;;6.60;99.90;;;;;;5078968;28;20025;-75
2022/02/04 02:10:43;;;;;;;80.80;33.25;;;6.50;99.90;;;;;;5076209;28;20016;-77
2022/02/04 02:51:04;;;;;;;86.95;34.60;;;6.70;99.90;;;;;;5077108;28;20070;-74
2022/02/04 02:59:06;;;;;;;77.90;34.92;;;6.70;99.90;;;;;;5071026;28;20038;-74
2022/02/04 03:01:32;;;;;;;79.63;35.08;;;6.70;99.90;;;;;;5074732;28;20081;-75
2022/02/04 03:04:02;;;;;;;87.78;35.10;;;6.70;99.90;;;;;;5077921;28;20111;-75
2022/02/04 03:06:28;;;;;;;84.40;37.80;;;6.70;99.90;;;;;;5074691;28;20112;-75
2022/02/04 03:08:53;;;;;;;82.40;36.20;;;6.70;99.90;;;;;;5078930;28;20355;-75
2022/02/04 03:11:19;;;;;;;88.40;36.17;;;6.70;99.90;;;;;;5059691;28;20150;-75
2022/02/04 03:13:45;;;;;;;82.53;36.67;;;6.70;99.90;;;;;;5078591;28;20024;-74
2022/02/04 03:16:15;;;;;;;84.93;36.42;;;6.70;99.90;;;;;;5074133;28;20035;-75
2022/02/04 03:18:44;;;;;;;76.60;34.28;;;6.70;99.90;;;;;;5072966;28;20032;-75
2022/02/04 03:23:38;;;;;;;86.57;36.60;;;6.70;99.90;;;;;;5075794;28;20105;-75
2022/02/04 03:26:10;;;;;;;87.13;37.72;;;6.70;99.90;;;;;;5070382;28;20877;-75
2022/02/04 03:28:37;;;;;;;85.10;37.65;;;6.70;99.90;;;;;;5072968;28;20455;-75
2022/02/04 03:31:03;;;;;;;81.75;36.63;;;6.70;99.90;;;;;;5075446;28;20020;-75
2022/02/04 03:33:30;;;;;;;88.30;37.78;;;6.70;99.90;;;;;;5074750;28;20122;-75
2022/02/04 03:35:56;;;;;;;87.40;35.92;;;6.70;99.90;;;;;;5076075;28;20059;-75
2022/02/04 03:38:22;;;;;;;88.85;36.97;;;6.70;99.90;;;;;;5074731;28;20028;-75
2022/02/04 03:40:48;;;;;;;88.32;37.63;;;6.60;99.90;;;;;;5076651;28;20039;-74
2022/02/04 03:43:14;;;;;;;84.05;36.20;;;6.60;99.90;;;;;;5071827;28;20047;-75
2022/02/04 03:45:40;;;;;;;92.47;38.75;;;6.60;99.90;;;;;;5071570;28;20155;-75
2022/02/04 03:48:05;;;;;;;84.63;36.72;;;6.70;99.90;;;;;;5068769;23;20433;-76
2022/02/04 03:50:31;;;;;;;87.28;37.10;;;6.70;99.90;;;;;;5056012;28;20029;-75
2022/02/04 03:52:57;;;;;;;89.22;40.17;;;6.70;99.90;;;;;;5038112;28;20044;-74
2022/02/04 03:55:22;;;;;;;84.65;38.92;;;6.70;99.90;;;;;;5035984;28;20031;-75
2022/02/04 03:57:48;;;;;;;89.60;37.78;;;6.70;99.90;;;;;;5036798;28;20425;-74
2022/02/04 04:00:16;;;;;;;83.90;38.10;;;6.60;99.90;;;;;;5054847;28;20041;-74
2022/02/04 04:02:43;;;;;;;88.47;37.40;;;6.60;99.90;;;;;;5051514;28;20035;-74
2022/02/04 04:05:10;;;;;;;81.90;36.00;;;6.60;99.90;;;;;;5050926;28;20037;-74
2022/02/04 04:07:42;;;;;;;79.88;36.20;;;6.70;99.90;;;;;;5052528;28;20032;-74
2022/02/04 04:10:11;;;;;;;;;;;6.70;99.90;;;;;;5056208;28;20029;-75
2022/02/04 04:12:37;;;;;;;82.65;36.03;;;6.70;99.90;;;;;;5053593;28;19917;-74
2022/02/04 04:15:07;;;;;;;82.60;36.30;;;6.70;99.90;;;;;;5033746;28;20070;-74
2022/02/04 04:17:39;;;;;;;88.75;37.45;;;6.70;99.90;;;;;;5050027;28;20474;-76
2022/02/04 04:20:07;;;;;;;85.72;37.00;;;6.70;99.90;;;;;;5056348;28;20024;-74
2022/02/04 04:22:33;;;;;;;82.25;36.45;;;6.70;99.90;;;;;;5054932;28;20020;-76
2022/02/04 04:24:59;;;;;;;81.80;36.67;;;6.70;99.90;;;;;;5055846;28;20024;-74
2022/02/04 04:27:24;;;;;;;87.18;38.15;;;6.70;99.90;;;;;;5056009;28;20028;-75
2022/02/04 04:29:51;;;;;;;85.75;36.38;;;6.70;99.90;;;;;;5056401;28;20513;-75
2022/02/04 04:32:17;;;;;;;85.82;36.65;;;6.60;99.90;;;;;;5035774;28;20032;-74
2022/02/04 04:34:43;;;;;;;83.00;35.28;;;6.70;99.90;;;;;;5056038;28;20516;-75
2022/02/04 04:37:08;;;;;;;78.60;35.40;;;6.70;99.90;;;;;;5056262;28;20522;-76
2022/02/04 04:39:44;;;;;;;74.07;34.92;;;6.60;99.90;;;;;;5031807;28;20490;-75
2022/02/04 04:42:19;;;;;;;74.53;33.83;;;6.60;99.90;;;;;;5035727;28;20553;-75
2022/02/04 04:45:23;;;;;;;79.40;34.30;;;6.60;99.90;;;;;;5053962;28;20032;-76
2022/02/04 05:26:40;;;;;;;62.42;29.27;;;6.70;99.90;;;;;;5053816;28;20064;-75
2022/02/04 05:29:12;;;;;;;57.60;27.73;;;6.60;99.90;;;;;;5037467;28;20403;-76
2022/02/04 05:31:38;;;;;;;55.92;27.33;;;6.60;99.90;;;;;;5038905;28;20028;-76
2022/02/04 05:34:04;;;;;;;57.70;28.48;;;6.60;99.90;;;;;;5057655;28;20040;-75
2022/02/04 05:36:33;;;;;;;56.88;26.65;;;6.60;99.90;;;;;;5057508;28;20033;-75
2022/02/04 05:38:59;;;;;;;53.05;25.80;;;6.70;99.90;;;;;;5057698;28;20060;-75
2022/02/04 05:41:30;;;;;;;58.90;27.33;;;6.60;99.90;;;;;;5057964;28;20326;-75
2022/02/04 05:43:58;;;;;;;60.70;26.10;;;6.60;99.90;;;;;;5041248;28;20032;-73
2022/02/04 05:46:29;;;;;;;52.97;25.77;;;6.60;99.90;;;;;;5058939;28;20551;-75
2022/02/04 05:48:57;;;;;;;53.75;25.92;;;6.60;99.90;;;;;;5053722;28;20040;-75
2022/02/04 06:13:02;;;;;;;49.08;25.63;;;6.70;99.90;;;;;;5058315;28;20025;-74
2022/02/04 06:22:08;;;;;;;51.58;25.20;;;6.70;99.90;;;;;;5057132;28;20029;-75
2022/02/04 06:23:45;;;;;;;50.55;25.33;;;6.70;99.90;;;;;;5057788;28;20033;-75
2022/02/04 06:26:11;;;;;;;54.58;26.20;;;6.70;99.90;;;;;;5054272;28;20040;-74
2022/02/04 06:28:38;;;;;;;51.60;25.50;;;6.70;99.90;;;;;;5057791;28;20043;-74
2022/02/04 06:31:04;;;;;;;50.53;24.20;;;6.70;99.90;;;;;;5054816;28;20033;-74
2022/02/04 06:33:30;;;;;;;54.15;26.15;;;6.70;99.90;;;;;;5056141;28;20474;-75
2022/02/04 06:35:56;;;;;;;51.42;25.88;;;6.80;99.90;;;;;;5054653;28;20035;-75
2022/02/04 06:38:22;;;;;;;49.75;24.58;;;6.70;99.90;;;;;;5061158;28;20035;-74
2022/02/04 06:40:47;;;;;;;54.58;26.42;;;6.80;99.90;;;;;;5054310;28;20025;-74
2022/02/04 06:43:13;;;;;;;49.35;24.55;;;6.80;99.90;;;;;;5052360;28;20104;-73
2022/02/04 06:45:40;;;;;;;48.47;23.33;;;6.80;99.90;;;;;;5060683;28;20069;-75
2022/02/04 06:48:06;;;;;;;49.88;25.73;;;6.80;99.90;;;;;;5059735;28;20060;-75
2022/02/04 06:50:32;;;;;;;51.95;26.17;;;6.80;99.90;;;;;;5060338;28;20036;-74
2022/02/04 06:52:58;;;;;;;49.03;23.80;;;6.80;99.90;;;;;;5044090;28;20024;-74
2022/02/04 06:55:23;;;;;;;52.25;25.58;;;6.80;99.90;;;;;;5041520;28;20490;-74
2022/02/04 06:57:49;;;;;;;53.67;26.60;;;6.80;99.90;;;;;;5038043;28;20062;-75
2022/02/04 07:00:18;;;;;;;53.83;26.88;;;6.80;99.90;;;;;;5052972;28;20033;-74
2022/02/04 07:02:45;;;;;;;51.22;26.23;;;6.80;99.90;;;;;;5036492;28;20483;-74
2022/02/04 07:05:13;;;;;;;52.70;25.50;;;6.80;99.90;;;;;;5057631;28;20041;-73
2022/02/04 07:07:43;;;;;;;50.08;25.25;;;6.80;99.90;;;;;;5052921;28;20022;-72
2022/02/04 07:10:26;;;;;;;46.25;24.75;;;6.80;99.90;;;;;;5057406;28;20502;-75
2022/02/04 07:13:03;;;;;;;50.75;25.42;;;6.80;99.90;;;;;;5056827;28;20024;-74
2022/02/04 07:20:48;;;;;;;51.03;24.88;;;6.80;99.90;;;;;;5058661;28;20082;-75
2022/02/04 07:23:14;;;;;;;51.05;26.50;;;6.90;99.90;;;;;;5060145;28;20486;-75
2022/02/04 07:25:40;;;;;;;52.83;26.35;;;6.90;99.90;;;;;;5058829;28;20096;-75
2022/02/04 07:28:06;;;;;;;55.45;27.50;;;6.90;99.90;;;;;;5042235;28;20052;-72
2022/02/04 07:30:32;;;;;;;54.83;27.20;;;6.90;99.90;;;;;;5060683;28;20027;-76
2022/02/04 07:33:15;;;;;;;51.67;26.75;;;6.80;99.90;;;;;;5038309;28;20025;-76
2022/02/04 07:40:56;;;;;;;49.00;25.63;;;6.90;99.90;;;;;;5060544;28;20458;-75
2022/02/04 07:43:22;;;;;;;;;;;6.90;99.90;;;;;;5039410;28;20413;-73
2022/02/04 07:45:48;;;;;;;53.00;26.45;;;6.90;99.90;;;;;;5056337;28;20472;-73
2022/02/04 07:48:14;;;;;;;55.70;26.73;;;6.90;99.90;;;;;;5061163;28;20058;-69
2022/02/04 07:50:42;;;;;;;51.42;25.50;;;6.90;99.90;;;;;;5054384;28;20059;-73
2022/02/04 07:53:08;;;;;;;53.90;28.08;;;7.00;99.90;;;;;;5052495;28;20472;-74
2022/02/04 07:55:34;;;;;;;52.92;27.17;;;7.00;99.90;;;;;;5037717;28;20151;-76
2022/02/04 07:58:00;;;;;;;51.20;26.88;;;7.00;99.90;;;;;;5032918;28;20051;-75
2022/02/04 08:00:27;;;;;;;55.50;27.40;;;7.00;99.90;;;;;;5045173;28;20036;-74
2022/02/04 08:02:53;;;;;;;51.17;27.80;;;7.00;99.90;;;;;;5053442;28;20024;-75
2022/02/04 08:05:24;;;;;;;48.50;27.27;;;7.00;99.90;;;;;;5049899;28;20857;-75
2022/02/04 08:10:28;;;;;;;49.70;27.25;;;7.00;99.90;;;;;;5052126;28;20414;-75
2022/02/04 08:26:21;;;;;;;44.70;24.40;;;7.20;99.90;;;;;;5061520;28;20025;-74
2022/02/04 08:50:58;;;;;;;42.72;25.00;;;7.30;99.90;;;;;;5034710;28;20029;-73
2022/02/04 08:53:05;;;;;;;44.72;25.13;;;7.30;99.90;;;;;;5048592;28;20116;-74
2022/02/04 08:55:44;;;;;;;49.47;26.33;;;7.40;99.90;;;;;;5055209;28;20063;-74
2022/02/04 08:58:25;;;;;;;43.45;24.10;;;7.40;99.90;;;;;;5057934;28;20479;-74
2022/02/04 09:01:19;;;;;;;45.13;25.00;;;7.40;99.90;;;;;;5053387;28;20553;-74
2022/02/04 09:06:16;;;;;;;47.05;24.02;;;7.40;99.90;;;;;;5041022;28;20078;-74
2022/02/04 09:08:45;;;;;;;44.63;25.57;;;7.50;99.90;;;;;;5057452;28;20051;-73
2022/02/04 09:11:16;;;;;;;42.50;23.80;;;7.50;99.90;;;;;;5060935;28;20024;-75
2022/02/04 09:19:18;;;;;;;38.03;21.80;;;7.50;99.90;;;;;;5060356;28;20029;-75
2022/02/04 09:24:11;;;;;;;40.78;23.67;;;7.50;99.90;;;;;;5057805;28;20043;-75
2022/02/04 09:26:37;;;;;;;42.15;24.17;;;7.50;99.90;;;;;;5060469;28;20021;-74
2022/02/04 09:29:03;;;;;;;38.08;21.55;;;7.60;99.90;;;;;;5063142;28;20385;-74
2022/02/04 09:31:29;;;;;;;37.53;23.23;;;7.60;99.90;;;;;;5058203;28;21295;-74
2022/02/04 09:33:54;;;;;;;38.25;22.95;;;7.60;99.90;;;;;;5058828;28;20514;-73
2022/02/04 09:36:20;;;;;;;39.08;23.92;;;7.60;99.90;;;;;;5059667;28;20033;-75
2022/02/04 09:38:46;;;;;;;37.35;21.45;;;7.60;99.90;;;;;;5062897;28;20033;-76
2022/02/04 09:41:12;;;;;;;36.60;22.67;;;7.60;99.90;;;;;;5063907;28;20037;-75
2022/02/04 09:43:37;;;;;;;37.08;22.27;;;7.70;99.90;;;;;;5062915;28;20024;-74
2022/02/04 09:46:06;;;;;;;35.45;22.20;;;7.60;99.90;;;;;;5060479;28;20394;-75
2022/02/04 09:48:31;;;;;;;41.45;22.65;;;7.60;99.90;;;;;;5058794;22;20059;-76
2022/02/04 09:50:58;;;;;;;33.28;21.15;;;7.70;99.90;;;;;;5041453;28;20021;-77
2022/02/04 10:07:27;;;;;;;31.65;19.95;;;7.80;99.90;;;;;;5058362;28;20082;-75
2022/02/04 10:18:12;;;;;;;33.78;21.17;;;7.90;99.90;;;;;;5057259;28;20031;-76
2022/02/04 10:20:42;;;;;;;34.28;20.13;;;7.90;99.90;;;;;;5056164;28;20027;-76
2022/02/04 10:23:08;;;;;;;31.42;19.90;;;8.00;99.90;;;;;;5046215;28;20020;-76
2022/02/04 10:25:37;;;;;;;33.22;20.08;;;8.00;99.90;;;;;;5054194;28;20063;-75
2022/02/04 10:28:05;;;;;;;30.90;19.85;;;8.10;99.90;;;;;;5057549;28;20025;-76
2022/02/04 10:30:32;;;;;;;31.13;20.10;;;8.10;99.90;;;;;;5056915;28;20721;-77
2022/02/04 10:32:59;;;;;;;30.67;19.27;;;8.20;99.90;;;;;;5053446;28;20356;-76
2022/02/04 10:35:36;;;;;;;32.80;20.20;;;8.20;99.90;;;;;;5051751;28;20051;-76
2022/02/04 10:41:18;;;;;;;30.92;18.77;;;8.30;99.90;;;;;;5056350;28;20021;-77
2022/02/04 10:44:21;;;;;;;26.42;18.23;;;8.30;99.90;;;;;;5040635;28;20028;-77
2022/02/04 10:46:53;;;;;;;27.85;18.02;;;8.30;99.90;;;;;;5057069;28;20025;-74
2022/02/04 10:49:47;;;;;;;28.60;18.27;;;8.30;99.90;;;;;;5056250;28;20074;-76
2022/02/04 10:52:32;;;;;;;24.08;17.45;;;8.30;99.90;;;;;;5063114;28;20025;-75
2022/02/04 11:00:26;;;;;;;26.73;17.55;;;8.40;99.90;;;;;;5058221;28;20071;-74
2022/02/04 11:03:08;;;;;;;25.40;17.30;;;8.40;99.90;;;;;;5059621;28;20072;-75
2022/02/04 11:05:53;;;;;;;25.08;16.65;;;8.50;99.90;;;;;;5033609;28;20284;-74
2022/02/04 11:33:46;;;;;;;23.60;15.32;;;8.70;99.90;;;;;;5054554;28;20029;-77
2022/02/04 11:36:23;;;;;;;20.58;14.05;;;8.70;99.90;;;;;;5059300;28;20107;-77
2022/02/04 13:07:44;;;;;;;12.27;7.53;;;8.70;99.90;;;;;;4962375;28;20057;-76
2022/02/04 13:11:17;;;;;;;12.25;7.10;;;8.70;99.90;;;;;;4964340;28;20500;-74
2022/02/04 13:13:54;;;;;;;8.52;6.38;;;8.60;99.90;;;;;;4910369;29;20048;-75
2022/02/04 13:16:26;;;;;;;10.23;6.65;;;8.60;99.90;;;;;;4966182;28;20058;-74
2022/02/04 13:18:54;;;;;;;11.68;6.70;;;8.70;99.90;;;;;;4962197;28;20086;-74
2022/02/04 13:21:21;;;;;;;10.80;6.22;;;8.60;99.90;;;;;;4960842;28;20063;-74
2022/02/04 13:23:48;;;;;;;10.48;6.60;;;8.70;99.90;;;;;;4962045;28;20035;-74
2022/02/04 13:26:14;;;;;;;12.05;6.82;;;8.70;99.90;;;;;;4964514;28;20133;-75
2022/02/04 13:28:41;;;;;;;11.02;5.60;;;8.60;99.90;;;;;;4964247;28;20188;-73
2022/02/04 13:31:11;;;;;;;9.35;5.85;;;8.70;99.90;;;;;;4961990;28;20055;-74
2022/02/04 13:33:42;;;;;;;10.60;6.00;;;8.70;99.90;;;;;;4960752;28;20028;-74
2022/02/04 13:36:24;;;;;;;10.52;5.82;;;8.70;99.90;;;;;;4968439;28;20062;-73
2022/02/04 13:39:04;;;;;;;7.22;5.40;;;8.70;99.90;;;;;;4963610;28;20493;-73
2022/02/04 13:46:50;;;;;;;7.30;4.20;;;8.70;99.90;;;;;;4963500;28;20039;-73
2022/02/04 13:49:35;;;;;;;7.10;4.40;;;8.70;99.90;;;;;;4978505;28;20391;-74
2022/02/04 13:52:20;;;;;;;9.27;4.03;;;8.70;99.90;;;;;;4965580;28;20029;-75
2022/02/04 13:55:04;;;;;;;7.22;4.18;;;8.60;99.90;;;;;;4963575;28;20023;-74
2022/02/04 14:00:07;;;;;;;6.28;4.03;;;8.70;99.90;;;;;;4967453;28;20023;-74
2022/02/04 14:02:40;;;;;;;5.15;3.42;;;8.70;99.90;;;;;;4975273;28;20031;-74
2022/02/04 14:05:07;;;;;;;5.93;3.95;;;8.70;99.90;;;;;;4962614;28;20503;-73
2022/02/04 14:07:46;;;;;;;5.05;2.90;;;8.70;99.90;;;;;;4961258;28;20031;-73
2022/02/04 14:10:35;;;;;;;4.57;3.25;;;8.70;99.90;;;;;;4959275;28;20441;-74
2022/02/04 14:13:13;;;;;;;7.38;3.35;;;8.70;99.90;;;;;;4961089;28;20031;-73
2022/02/04 14:15:48;;;;;;;6.50;3.47;;;8.70;99.90;;;;;;4964063;28;20066;-73
2022/02/04 14:18:14;;;;;;;4.95;3.55;;;8.70;99.90;;;;;;4961125;28;20035;-75
2022/02/04 14:20:42;;;;;;;9.00;3.72;;;8.70;99.90;;;;;;4961860;28;20042;-74
2022/02/04 14:23:09;;;;;;;7.85;3.35;;;8.70;99.90;;;;;;4968497;28;20096;-73
2022/02/04 14:26:07;;;;;;;5.78;4.13;;;8.70;99.90;;;;;;4961032;28;20134;-72
2022/02/04 14:28:50;;;;;;;7.60;3.13;;;8.70;99.90;;;;;;4967113;28;20078;-73
2022/02/04 14:31:32;;;;;;;4.25;3.58;;;8.60;99.90;;;;;;4976477;28;20102;-74
2022/02/04 14:34:41;;;;;;;5.38;3.83;;;8.70;99.90;;;;;;4960909;28;20022;-73
2022/02/04 14:37:03;;;;;;;7.30;3.70;;;8.70;99.90;;;;;;4960323;28;20035;-74
2022/02/04 14:51:13;;;;;;;7.78;4.18;;;8.70;99.90;;;;;;4961842;28;20097;-73
2022/02/04 14:53:45;;;;;;;5.13;3.97;;;8.80;99.90;;;;;;4962801;28;20031;-73
2022/02/04 15:00:00;;;;;;;6.93;4.53;;;8.70;99.90;;;;;;4961992;28;20473;-73
2022/02/04 15:02:06;;;;;;;6.85;4.68;;;8.70;99.90;;;;;;4962453;28;20039;-73
2022/02/04 15:07:04;;;;;;;7.07;4.60;;;8.70;99.90;;;;;;4960169;28;20058;-74
2022/02/04 15:09:31;;;;;;;8.45;4.95;;;8.70;99.90;;;;;;4944470;28;20051;-73
2022/02/04 15:11:56;;;;;;;7.43;4.70;;;8.70;99.90;;;;;;4962763;28;20024;-73
2022/02/04 15:14:22;;;;;;;7.50;4.65;;;8.70;99.90;;;;;;4961807;28;20033;-73
2022/02/04 15:16:48;;;;;;;6.63;4.72;;;8.70;99.90;;;;;;4961227;28;20042;-74
2022/02/04 15:19:14;;;;;;;8.65;4.72;;;8.70;99.90;;;;;;4961688;28;20077;-74
2022/02/04 15:21:46;;;;;;;7.05;4.70;;;8.70;99.90;;;;;;4959812;28;20081;-74
2022/02/04 15:24:12;;;;;;;5.82;4.65;;;8.60;99.90;;;;;;4962831;28;20041;-74
2022/02/04 15:26:38;;;;;;;5.32;4.25;;;8.60;99.90;;;;;;4961212;28;20491;-73
2022/02/04 15:29:08;;;;;;;5.78;4.05;;;8.60;99.90;;;;;;4961959;28;20485;-74
2022/02/04 15:32:16;;;;;;;4.65;3.90;;;8.60;99.90;;;;;;4959904;28;20081;-74
2022/02/04 15:34:24;;;;;;;4.57;3.53;;;8.60;99.90;;;;;;4958454;28;20516;-73
2022/02/04 15:36:51;;;;;;;5.53;4.20;;;8.60;99.90;;;;;;4962349;28;20043;-74
2022/02/04 15:39:26;;;;;;;5.13;4.13;;;8.50;99.90;;;;;;4962884;28;20034;-73
2022/02/04 15:41:58;;;;;;;6.50;4.45;;;8.60;99.90;;;;;;4961018;28;20113;-73
2022/02/04 15:47:17;;;;;;;4.50;3.75;;;8.50;99.90;;;;;;4961830;28;20034;-76
2022/02/04 15:57:52;;;;;;;7.50;4.15;;;8.50;99.90;;;;;;4960463;28;20030;-73
2022/02/04 16:05:41;;;;;;;3.90;3.45;;;8.40;99.90;;;;;;4960771;28;20035;-74
2022/02/04 16:08:10;;;;;;;5.40;3.83;;;8.40;99.90;;;;;;4964897;28;20031;-73
2022/02/04 16:10:52;;;;;;;5.90;3.83;;;8.40;99.90;;;;;;4963482;28;20110;-74
2022/02/04 16:13:38;;;;;;;5.38;3.70;;;8.30;99.90;;;;;;4963136;28;20031;-75
2022/02/04 16:18:54;;;;;;;6.22;4.78;;;8.20;99.90;;;;;;4964039;28;20328;-74
2022/02/04 16:21:26;;;;;;;5.97;4.65;;;8.20;99.90;;;;;;4967060;28;20077;-74
2022/02/04 16:24:03;;;;;;;5.60;4.80;;;8.20;99.90;;;;;;4960445;28;20427;-73
2022/02/04 16:29:14;;;;;;;8.32;5.88;;;8.30;99.90;;;;;;4962157;28;20485;-73
2022/02/04 16:31:40;;;;;;;7.55;6.50;;;8.20;99.90;;;;;;4960338;28;20106;-76
2022/02/04 16:34:09;;;;;;;7.15;5.80;;;8.20;99.90;;;;;;4967588;28;20130;-74
2022/02/04 16:36:42;;;;;;;7.38;6.43;;;8.20;99.90;;;;;;4958819;28;20027;-74
2022/02/04 16:39:09;;;;;;;8.82;6.25;;;8.20;99.90;;;;;;4961112;28;20033;-73
2022/02/04 16:44:31;;;;;;;8.02;6.53;;;8.20;99.90;;;;;;4956920;28;20146;-73
2022/02/04 16:47:00;;;;;;;7.80;6.00;;;8.20;99.90;;;;;;4958959;28;20034;-73
2022/02/04 16:49:27;;;;;;;9.50;6.10;;;8.20;99.90;;;;;;4961396;28;20110;-75
2022/02/04 16:51:52;;;;;;;8.38;5.63;;;8.20;99.90;;;;;;4960889;28;20031;-73
2022/02/04 16:54:19;;;;;;;8.23;6.03;;;8.20;99.90;;;;;;4962148;28;20097;-74
2022/02/04 16:56:45;;;;;;;6.57;5.50;;;8.20;99.90;;;;;;4975212;28;20039;-73
2022/02/04 16:59:12;;;;;;;6.60;5.82;;;8.20;99.90;;;;;;4961989;28;20077;-74
2022/02/04 17:01:38;;;;;;;6.38;5.32;;;8.10;99.90;;;;;;4959713;28;20028;-73
2022/02/04 17:04:05;;;;;;;6.40;5.30;;;8.10;99.90;;;;;;4957703;28;20050;-73
2022/02/04 17:06:36;;;;;;;10.90;5.78;;;8.10;99.90;;;;;;4960984;28;20543;-73
2022/02/04 17:11:50;;;;;;;7.78;5.80;;;7.90;99.90;;;;;;4960231;28;20031;-74
2022/02/04 17:14:17;;;;;;;5.93;5.03;;;7.90;99.90;;;;;;4959549;28;20038;-74
2022/02/04 17:16:43;;;;;;;2.00;1.30;;;7.80;99.90;;;;;;4965340;28;20035;-73
2022/02/04 17:19:10;;;;;;;1.85;1.00;;;7.50;99.90;;;;;;4967033;28;20524;-73
2022/02/04 17:21:38;;;;;;;1.52;1.02;;;6.80;99.90;;;;;;4959629;28;20077;-73
2022/02/04 17:24:04;;;;;;;1.88;1.00;;;6.50;99.90;;;;;;4962084;28;20490;-72
2022/02/04 17:26:29;;;;;;;1.60;1.10;;;6.20;99.90;;;;;;4965167;28;20031;-72
2022/02/04 17:28:55;;;;;;;1.15;0.90;;;6.00;99.90;;;;;;4971054;28;20152;-73
2022/02/04 17:31:21;;;;;;;1.65;0.90;;;5.90;99.90;;;;;;4964066;28;20023;-73
2022/02/04 17:33:47;;;;;;;1.10;0.65;;;5.60;99.90;;;;;;4964140;28;20068;-73
2022/02/04 17:36:13;;;;;;;4.22;0.82;;;5.50;99.90;;;;;;4963193;28;20045;-74
2022/02/04 17:38:40;;;;;;;2.08;0.60;;;5.40;99.90;;;;;;4962911;28;20105;-74
2022/02/04 17:41:08;;;;;;;1.88;0.70;;;5.30;99.90;;;;;;4968652;28;20039;-73
2022/02/04 17:43:34;;;;;;;1.33;0.50;;;5.10;99.90;;;;;;4963016;28;20036;-74
2022/02/04 17:46:00;;;;;;;1.30;0.93;;;5.10;99.90;;;;;;4961582;28;20035;-73
2022/02/04 17:48:39;;;;;;;1.17;0.82;;;5.10;99.90;;;;;;4962774;28;20477;-73
2022/02/04 17:53:58;;;;;;;1.80;1.10;;;4.90;99.90;;;;;;4965910;28;20033;-74
2022/02/04 17:56:38;;;;;;;1.45;0.90;;;4.80;99.90;;;;;;4961855;28;20408;-74
2022/02/04 18:07:08;;;;;;;1.83;0.88;;;4.50;99.90;;;;;;4962408;28;20030;-74
2022/02/04 18:09:36;;;;;;;1.63;0.65;;;4.40;99.90;;;;;;4964390;28;20031;-74
2022/02/04 18:12:03;;;;;;;1.67;0.90;;;4.40;99.90;;;;;;4962451;28;20086;-74
2022/02/04 18:14:29;;;;;;;1.38;0.70;;;4.30;99.90;;;;;;4967123;28;20495;-74
2022/02/04 18:16:54;;;;;;;2.80;0.70;;;4.30;99.90;;;;;;4961084;28;20027;-74
2022/02/04 18:19:20;;;;;;;2.58;1.00;;;4.10;99.90;;;;;;4945195;28;20496;-74
2022/02/04 18:21:46;;;;;;;1.20;0.90;;;4.10;99.90;;;;;;4964066;28;20031;-74
2022/02/04 18:24:12;;;;;;;2.15;1.08;;;4.10;99.90;;;;;;4966109;28;20023;-74
2022/02/04 18:26:37;;;;;;;2.83;1.55;;;4.10;99.90;;;;;;4965737;28;20030;-74
2022/02/04 18:29:05;;;;;;;4.55;1.75;;;4.10;99.90;;;;;;4960857;28;20088;-74
2022/02/04 18:31:32;;;;;;;4.38;2.13;;;4.00;99.90;;;;;;4962092;28;20039;-75
2022/02/04 18:34:01;;;;;;;2.83;1.90;;;4.00;99.90;;;;;;4952799;28;20038;-74
2022/02/04 18:36:27;;;;;;;5.07;1.92;;;3.90;99.90;;;;;;4963703;28;20023;-74
2022/02/04 18:39:08;;;;;;;3.05;1.90;;;3.90;99.90;;;;;;4962281;28;20038;-77
2022/02/04 18:44:04;;;;;;;6.20;2.90;;;3.90;99.90;;;;;;4964626;28;20063;-77
2022/02/04 18:49:01;;;;;;;4.90;3.17;;;4.00;99.90;;;;;;4958832;28;20118;-75
2022/02/04 18:54:44;;;;;;;3.72;2.53;;;4.00;99.90;;;;;;4961455;28;20041;-77
2022/02/04 18:59:12;;;;;;;4.47;2.30;;;4.00;99.90;;;;;;4965630;28;20035;-78
2022/02/04 19:01:37;;;;;;;5.13;2.53;;;4.00;99.90;;;;;;4961359;28;20118;-78
2022/02/04 19:04:08;;;;;;;3.83;2.30;;;4.00;99.90;;;;;;4962702;28;20568;-78
2022/02/04 19:06:40;;;;;;;5.35;2.10;;;4.10;99.90;;;;;;4963881;28;20022;-77
2022/02/04 19:09:07;;;;;;;2.95;2.10;;;4.10;99.90;;;;;;4964511;28;20054;-77
2022/02/04 19:11:41;;;;;;;6.00;2.60;;;4.00;99.90;;;;;;4968244;28;20023;-79
2022/02/04 19:14:13;;;;;;;4.65;2.70;;;3.90;99.90;;;;;;4970374;28;20095;-78
2022/02/04 19:21:41;;;;;;;4.47;2.58;;;4.00;99.90;;;;;;4960738;28;20950;-77
2022/02/04 19:24:10;;;;;;;4.85;3.05;;;4.00;99.90;;;;;;4964408;28;20027;-76
2022/02/04 19:26:38;;;;;;;4.47;3.30;;;3.90;99.90;;;;;;4967727;28;20026;-75
2022/02/04 19:29:04;;;;;;;5.55;2.88;;;3.90;99.90;;;;;;4964825;28;20134;-76
2022/02/04 19:31:33;;;;;;;5.15;3.20;;;3.90;99.90;;;;;;4963617;28;20051;-76
2022/02/04 19:33:59;;;;;;;3.55;2.20;;;3.80;99.90;;;;;;4955554;28;20031;-76
2022/02/04 19:36:24;;;;;;;5.75;3.00;;;3.80;99.90;;;;;;4966043;28;20099;-74
2022/02/04 19:38:50;;;;;;;4.22;2.65;;;3.80;99.90;;;;;;4964250;28;20030;-75
2022/02/04 19:41:20;;;;;;;4.97;2.25;;;3.70;99.90;;;;;;4959248;28;20050;-75
2022/02/04 19:43:49;;;;;;;2.85;1.85;;;3.70;99.90;;;;;;4959049;28;20509;-75
2022/02/04 19:46:20;;;;;;;4.95;1.95;;;3.70;99.90;;;;;;4960059;28;20121;-75
2022/02/04 19:48:50;;;;;;;3.58;2.28;;;3.70;99.90;;;;;;4962078;28;20167;-75
2022/02/04 20:07:48;;;;;;;3.67;1.83;;;3.60;99.90;;;;;;4959071;28;20057;-76
2022/02/04 20:23:34;;;;;;;2.05;1.40;;;3.50;99.90;;;;;;4961694;28;20106;-75
2022/02/04 20:24:21;;;;;;;2.00;1.00;;;3.50;99.90;;;;;;4958334;28;20035;-75
2022/02/04 20:26:42;;;;;;;1.77;1.02;;;3.50;99.90;;;;;;4962766;28;20031;-73
2022/02/04 20:29:07;;;;;;;2.97;1.60;;;3.60;99.90;;;;;;4964977;28;20129;-74
2022/02/04 20:31:33;;;;;;;2.65;1.02;;;3.60;99.90;;;;;;4956996;28;20038;-75
2022/02/04 20:33:59;;;;;;;2.67;1.33;;;3.70;99.90;;;;;;4956142;28;20027;-75
2022/02/04 20:36:24;;;;;;;3.20;1.52;;;3.70;99.90;;;;;;4959360;28;20030;-74
2022/02/04 20:38:51;;;;;;;7.15;3.00;;;3.60;99.90;;;;;;4955033;28;20037;-74
2022/02/04 20:41:23;;;;;;;5.30;2.17;;;3.70;99.90;;;;;;4964674;28;20038;-75
2022/02/04 20:43:49;;;;;;;4.97;2.90;;;3.80;99.90;;;;;;4961519;28;20417;-75
2022/02/04 20:46:14;;;;;;;9.05;3.45;;;3.80;99.90;;;;;;4961801;28;20030;-75
2022/02/04 20:48:42;;;;;;;5.05;3.38;;;3.80;99.90;;;;;;4962296;28;20031;-74
2022/02/04 20:51:08;;;;;;;9.80;3.88;;;3.90;99.90;;;;;;4972457;28;20023;-77
2022/02/04 20:53:36;;;;;;;10.05;4.78;;;3.90;99.90;;;;;;4963866;28;20093;-77